Prairie Lea, Texas
Current Conditions -  °F | °C
As of 9:55 PM on Saturday 25 Oct 2014 (Local Time) from KHYI Reporting Station
Clear Clear  
Wind Chill: 21°   Ceiling: Unl
Heat Index: 21°   Visibility: 10mi
Dew Point: 12°   Wind: 3mph
Humidity: 56%   Direction: 150°SSE
Pressure: 30.11"   Gusts: NA
Location:  29.73°N, 97.75°W
Report Text: KHYI 260255Z 15003KT 10SM CLR 21/12 A3011 RMK AO1 52010
Loading
Personal Weather Stations






























Interactive Weather Map
Tropical Storm Tracking
New forecast layout! Learn more

10-Day Weather Forecast

Advertisements
Track Severe Weather on mobile